Vadis, West Virginia
Current Conditions -  °F | °C
As of 1:15 AM on Monday 26 Jan 2015 (Local Time) from KW22 Reporting Station
Light Rain Light Rain  
Wind Chill: 37°   Ceiling: 2100
Heat Index: 37°   Visibility: 5mi
Dew Point: 37°   Wind: 0mph
Humidity: 100%   Direction: NA
Pressure: 29.67"   Gusts: NA
Location:  39.042°N, 80.6972°W
Report Text: KW22 260615Z AUTO 00000KT 5SM -RA FEW001 FEW010 OVC021 03/03 A2967 RMK AO2
Loading
Personal Weather Stations






























Interactive Weather Map New forecast layout! Learn more

10-Day Weather Forecast

Advertisements
Track Severe Weather on mobile